Kikinda, Serbia
Current Conditions -  °F | °C
As of 4:15 PM on Friday 24 Oct 2014 (Local Time) from LHUD Reporting Station
Broken Clouds Broken Clouds  
Wind Chill: 45°   Ceiling: 1500
Heat Index: 48°   Visibility: 4mi
Dew Point: 46°   Wind: 8mph
Humidity: 93%   Direction: 20°NNE
Pressure: 30.06"   Gusts: NA
Location:  45.84°N, 20.45°E
Report Text: LHUD 241415Z 02007KT 7000 SCT008 BKN015 09/08 Q1018
Loading
Personal Weather Stations






























Interactive Weather Map
Tropical Storm Tracking
New forecast layout! Learn more

10-Day Weather Forecast

Advertisements
Track Severe Weather on mobile